Time;durP1;ratioP1;P1;durP2;ratioP2;P2;SDS_P1;SDS_P2;PMS_P1;PMS_P2;Temp;Humidity;BMP_temperature;BMP_pressure;BME280_temperature;BME280_humidity;BME280_pressure;Samples;Min_cycle;Max_cycle;Signal;HPM_P1;HPM_P2
2022/11/28 00:00:56;;;;;;;69.53;50.30;;;14.40;74.20;;;;;;4979432;28;90840;-51
2022/11/28 00:03:23;;;;;;;68.03;49.92;;;14.40;74.10;;;;;;4986141;28;89506;-50
2022/11/28 00:05:50;;;;;;;69.28;50.30;;;14.40;74.10;;;;;;4984532;28;89937;-49
2022/11/28 00:08:15;;;;;;;68.43;50.10;;;14.40;74.20;;;;;;4984841;28;89872;-49
2022/11/28 00:10:41;;;;;;;69.05;50.00;;;14.40;74.10;;;;;;4982426;28;90978;-49
2022/11/28 00:13:07;;;;;;;68.03;50.00;;;14.40;74.90;;;;;;4978494;28;90884;-49
2022/11/28 00:15:33;;;;;;;68.45;50.22;;;14.40;74.00;;;;;;4985583;28;92269;-49
2022/11/28 00:17:58;;;;;;;68.90;50.20;;;14.40;74.20;;;;;;4988414;28;90287;-48
2022/11/28 00:20:24;;;;;;;68.05;49.78;;;14.40;74.10;;;;;;4988467;28;91166;-49
2022/11/28 00:22:51;;;;;;;69.20;50.22;;;14.40;74.20;;;;;;4982268;27;91552;-48
2022/11/28 00:25:17;;;;;;;68.72;50.13;;;14.40;74.20;;;;;;4989418;28;90238;-51
2022/11/28 00:27:42;;;;;;;68.43;50.35;;;14.40;74.10;;;;;;4984849;28;91162;-49
2022/11/28 00:30:09;;;;;;;67.88;49.95;;;14.40;74.00;;;;;;4991594;28;92475;-50
2022/11/28 00:32:34;;;;;;;68.53;50.28;;;14.40;74.20;;;;;;4987386;28;90350;-50
2022/11/28 00:35:00;;;;;;;69.18;50.50;;;14.30;74.10;;;;;;4984508;28;91216;-47
2022/11/28 00:37:26;;;;;;;68.05;50.60;;;14.40;74.20;;;;;;4987594;27;92606;-50
2022/11/28 00:39:51;;;;;;;68.40;50.30;;;14.30;74.00;;;;;;4984360;27;91748;-48
2022/11/28 00:42:19;;;;;;;67.32;50.03;;;14.30;74.20;;;;;;4987549;27;89996;-51
2022/11/28 00:44:45;;;;;;;68.32;50.30;;;14.40;74.10;;;;;;4986736;28;89924;-52
2022/11/28 00:47:11;;;;;;;68.20;50.65;;;14.30;74.10;;;;;;4991751;28;89677;-47
2022/11/28 00:49:37;;;;;;;68.95;50.47;;;14.30;74.20;;;;;;4979357;28;89731;-49
2022/11/28 00:52:03;;;;;;;68.20;50.08;;;14.30;74.10;;;;;;5000812;28;91162;-51
2022/11/28 00:54:28;;;;;;;68.90;50.25;;;14.30;74.20;;;;;;4982230;28;90888;-49
2022/11/28 00:56:54;;;;;;;67.75;49.97;;;14.30;74.00;;;;;;4987968;28;90556;-51
2022/11/28 00:59:20;;;;;;;68.13;50.50;;;14.30;74.10;;;;;;4983652;27;90794;-48
2022/11/28 01:01:45;;;;;;;68.55;50.58;;;14.30;74.10;;;;;;4985040;28;92937;-49
2022/11/28 01:04:14;;;;;;;67.45;49.95;;;14.30;74.10;;;;;;4982691;27;90585;-48
2022/11/28 01:06:46;;;;;;;68.18;50.00;;;14.30;73.90;;;;;;4988811;28;89880;-47
2022/11/28 01:09:18;;;;;;;68.97;50.72;;;14.30;74.10;;;;;;4984518;28;91450;-49
2022/11/28 01:11:45;;;;;;;67.72;50.13;;;14.30;74.00;;;;;;4984778;28;90442;-50
2022/11/28 01:14:12;;;;;;;68.80;50.50;;;14.30;74.00;;;;;;4984389;28;92244;-47
2022/11/28 01:16:38;;;;;;;68.40;50.03;;;14.30;74.10;;;;;;4997610;28;89056;-49
2022/11/28 01:19:05;;;;;;;67.95;50.28;;;14.30;74.00;;;;;;4977698;28;93805;-48
2022/11/28 01:21:30;;;;;;;68.95;50.22;;;14.30;74.10;;;;;;4993444;28;90316;-50
2022/11/28 01:23:56;;;;;;;67.63;50.17;;;14.30;74.10;;;;;;4981351;28;90763;-50
2022/11/28 01:26:25;;;;;;;67.57;49.88;;;14.30;74.00;;;;;;4993078;28;90298;-52
2022/11/28 01:28:51;;;;;;;68.40;50.38;;;14.30;74.00;;;;;;4982192;28;92703;-52
2022/11/28 01:31:20;;;;;;;68.47;50.40;;;14.30;74.00;;;;;;4984910;28;90175;-49
2022/11/28 01:33:46;;;;;;;68.15;50.25;;;14.30;74.00;;;;;;4989184;28;92780;-50
2022/11/28 01:36:13;;;;;;;67.50;49.95;;;14.30;74.00;;;;;;4990090;28;90836;-50
2022/11/28 01:38:39;;;;;;;68.40;50.50;;;14.20;74.10;;;;;;4982868;28;90271;-50
2022/11/28 01:41:06;;;;;;;69.65;50.70;;;14.20;74.00;;;;;;4985444;28;91248;-48
2022/11/28 01:43:32;;;;;;;68.50;50.50;;;14.30;74.00;;;;;;4986140;28;91588;-48
2022/11/28 01:45:58;;;;;;;69.55;51.15;;;14.30;74.00;;;;;;4990038;28;89868;-54
2022/11/28 01:48:27;;;;;;;69.80;50.53;;;14.30;74.00;;;;;;4997816;28;91767;-49
2022/11/28 01:50:58;;;;;;;67.72;50.22;;;14.30;74.10;;;;;;4985067;28;92440;-51
2022/11/28 01:53:28;;;;;;;68.65;50.35;;;14.30;74.00;;;;;;4989083;28;90304;-50
2022/11/28 01:55:59;;;;;;;68.78;50.58;;;14.20;74.00;;;;;;4982875;28;90369;-47
2022/11/28 01:58:25;;;;;;;68.35;50.45;;;14.20;73.90;;;;;;4983115;28;91211;-51
2022/11/28 02:00:51;;;;;;;69.28;50.92;;;14.20;73.90;;;;;;4981874;28;92668;-48
2022/11/28 02:03:28;;;;;;;68.55;50.78;;;14.20;74.00;;;;;;4992109;28;90876;-52
2022/11/28 02:05:56;;;;;;;69.28;50.55;;;14.20;74.00;;;;;;4980625;28;89657;-50
2022/11/28 02:08:21;;;;;;;68.90;50.53;;;14.20;74.00;;;;;;4993554;28;91172;-50
2022/11/28 02:11:05;;;;;;;68.22;50.38;;;14.20;73.80;;;;;;4979879;28;93655;-52
2022/11/28 02:13:50;;;;;;;68.18;50.58;;;14.20;73.90;;;;;;4989659;28;91057;-47
2022/11/28 02:16:24;;;;;;;69.10;50.78;;;14.20;73.90;;;;;;4991066;28;91385;-48
2022/11/28 02:19:19;;;;;;;68.43;50.60;;;14.20;74.00;;;;;;4989999;28;90506;-51
2022/11/28 02:21:59;;;;;;;68.38;50.90;;;14.20;74.00;;;;;;4976787;28;92065;-47
2022/11/28 02:24:53;;;;;;;68.30;50.40;;;14.20;73.80;;;;;;4992473;28;90521;-49
2022/11/28 02:27:56;;;;;;;68.65;50.50;;;14.20;73.80;;;;;;4988308;28;90058;-51
2022/11/28 02:30:25;;;;;;;69.13;50.42;;;14.20;73.90;;;;;;4979679;28;94090;-48
2022/11/28 02:33:07;;;;;;;67.85;50.92;;;14.20;73.90;;;;;;4985329;28;90990;-50
2022/11/28 02:35:41;;;;;;;68.60;50.95;;;14.20;73.80;;;;;;4990258;28;89829;-48
2022/11/28 02:38:19;;;;;;;69.05;50.22;;;14.20;73.90;;;;;;4981892;28;90117;-50
2022/11/28 02:40:50;;;;;;;67.80;50.22;;;14.20;73.80;;;;;;4978215;28;92200;-50
2022/11/28 02:43:26;;;;;;;67.97;50.35;;;14.20;73.80;;;;;;4988168;28;90406;-50
2022/11/28 02:46:09;;;;;;;68.40;50.83;;;14.20;73.90;;;;;;4980151;28;89908;-47
2022/11/28 02:48:42;;;;;;;69.25;51.03;;;14.20;73.80;;;;;;4984533;28;92120;-52
2022/11/28 02:51:27;;;;;;;69.07;50.90;;;14.20;73.80;;;;;;4978801;28;89960;-48
2022/11/28 02:53:55;;;;;;;68.60;50.85;;;14.20;73.90;;;;;;4986360;28;90034;-49
2022/11/28 02:56:23;;;;;;;68.03;50.33;;;14.20;73.80;;;;;;4982555;28;93476;-48
2022/11/28 02:58:49;;;;;;;68.85;50.78;;;14.20;73.80;;;;;;4984784;28;89360;-48
2022/11/28 03:01:21;;;;;;;68.55;50.50;;;14.20;73.70;;;;;;4980844;27;92332;-47
2022/11/28 03:04:30;;;;;;;68.40;50.65;;;14.20;73.90;;;;;;4982797;28;89486;-53
2022/11/28 03:07:36;;;;;;;69.30;50.78;;;14.20;73.90;;;;;;4996948;28;93233;-49
2022/11/28 03:10:36;;;;;;;69.07;51.00;;;14.20;73.80;;;;;;4933673;28;90156;-48
2022/11/28 03:13:26;;;;;;;68.28;50.78;;;14.20;73.80;;;;;;4944486;28;91039;-50
2022/11/28 03:16:13;;;;;;;69.13;51.03;;;14.10;73.80;;;;;;4971431;28;89886;-50
2022/11/28 03:19:19;;;;;;;69.15;51.03;;;14.20;73.80;;;;;;4986167;28;90744;-48
2022/11/28 03:21:51;;;;;;;68.80;50.92;;;14.20;73.80;;;;;;4976738;28;91236;-49
2022/11/28 03:24:33;;;;;;;69.38;51.05;;;14.20;73.70;;;;;;4986777;28;91618;-50
2022/11/28 03:26:59;;;;;;;;;;;14.10;73.80;;;;;;4980107;27;89755;-48
2022/11/28 03:29:33;;;;;;;67.82;50.65;;;14.20;73.80;;;;;;4984953;28;90029;-48
2022/11/28 03:32:17;;;;;;;69.47;50.65;;;14.10;73.80;;;;;;4982170;28;91564;-48
2022/11/28 03:34:47;;;;;;;68.35;50.92;;;14.10;73.80;;;;;;4983702;28;91889;-50
2022/11/28 03:37:19;;;;;;;69.27;50.87;;;14.20;73.80;;;;;;4983087;28;90944;-49
2022/11/28 03:39:51;;;;;;;68.38;50.65;;;14.10;73.70;;;;;;4986486;28;90992;-50
2022/11/28 03:42:27;;;;;;;70.55;51.28;;;14.20;74.50;;;;;;4986220;28;92849;-51
2022/11/28 03:45:03;;;;;;;70.07;51.15;;;14.20;73.70;;;;;;4978645;28;90782;-51
2022/11/28 03:47:37;;;;;;;68.72;50.65;;;14.10;73.70;;;;;;4980320;28;90709;-47
2022/11/28 03:50:07;;;;;;;69.10;50.70;;;14.10;73.70;;;;;;4984012;28;91298;-49
2022/11/28 03:52:41;;;;;;;69.93;51.33;;;14.10;73.70;;;;;;4985596;28;89174;-49
2022/11/28 03:55:17;;;;;;;68.80;51.08;;;14.10;73.70;;;;;;4987632;28;92188;-50
2022/11/28 03:57:55;;;;;;;69.22;50.83;;;14.10;73.70;;;;;;4989482;28;89817;-51
2022/11/28 04:00:21;;;;;;;69.15;50.95;;;14.10;73.70;;;;;;4989366;28;91340;-50
2022/11/28 04:02:56;;;;;;;68.75;50.67;;;14.10;73.60;;;;;;4987173;28;91094;-48
2022/11/28 04:05:39;;;;;;;71.13;51.25;;;14.10;73.60;;;;;;4988169;28;90024;-49
2022/11/28 04:08:28;;;;;;;68.43;50.75;;;14.10;73.70;;;;;;4983477;28;89942;-50
2022/11/28 04:10:57;;;;;;;68.38;50.67;;;14.10;73.70;;;;;;4993997;28;90168;-52
2022/11/28 04:13:30;;;;;;;68.30;50.65;;;14.10;73.80;;;;;;4990956;28;89387;-48
2022/11/28 04:16:06;;;;;;;70.00;51.47;;;14.10;73.70;;;;;;4990424;28;93316;-48
2022/11/28 04:19:13;;;;;;;69.18;50.67;;;14.10;73.60;;;;;;4991060;28;90758;-48
2022/11/28 04:22:23;;;;;;;68.95;51.05;;;14.10;73.60;;;;;;4965971;28;92852;-51
2022/11/28 04:24:53;;;;;;;68.63;51.15;;;14.10;73.70;;;;;;4932246;28;90025;-51
2022/11/28 04:27:26;;;;;;;70.05;51.35;;;14.10;73.70;;;;;;4941076;28;91965;-50
2022/11/28 04:29:55;;;;;;;69.43;51.13;;;14.10;73.60;;;;;;4975599;28;90050;-50
2022/11/28 04:32:23;;;;;;;69.03;51.17;;;14.10;73.90;;;;;;4984297;27;91453;-52
2022/11/28 04:34:57;;;;;;;68.95;50.45;;;14.10;73.70;;;;;;4988563;27;91173;-47
2022/11/28 04:37:25;;;;;;;68.97;51.15;;;14.10;73.60;;;;;;4993590;28;90268;-49
2022/11/28 04:39:53;;;;;;;68.60;50.83;;;14.10;73.60;;;;;;4993380;28;93272;-52
2022/11/28 04:42:29;;;;;;;68.72;50.85;;;14.10;73.60;;;;;;4984394;28;89745;-49
2022/11/28 04:45:05;;;;;;;70.63;50.95;;;14.10;73.60;;;;;;4986388;28;89157;-49
2022/11/28 04:47:30;;;;;;;69.20;50.65;;;14.10;73.60;;;;;;4982459;28;91094;-50
2022/11/28 04:49:57;;;;;;;68.78;50.90;;;14.10;73.50;;;;;;4988087;28;90920;-48
2022/11/28 04:52:34;;;;;;;68.80;50.90;;;14.10;73.50;;;;;;4984417;28;92454;-50
2022/11/28 04:55:52;;;;;;;68.20;50.92;;;14.10;73.50;;;;;;4986345;28;89779;-50
2022/11/28 04:58:34;;;;;;;68.13;50.50;;;14.10;73.60;;;;;;4981732;28;92168;-51
2022/11/28 05:01:03;;;;;;;69.22;51.17;;;14.10;73.60;;;;;;4988913;28;90045;-47
2022/11/28 05:03:30;;;;;;;70.53;51.03;;;14.10;73.50;;;;;;4980568;28;92474;-48
2022/11/28 05:05:56;;;;;;;68.43;50.92;;;14.10;73.50;;;;;;4991403;28;90335;-50
2022/11/28 05:08:22;;;;;;;68.28;50.88;;;14.10;73.60;;;;;;4980242;28;90337;-51
2022/11/28 05:10:48;;;;;;;68.60;51.00;;;14.10;73.60;;;;;;4989762;28;90554;-48
2022/11/28 05:13:14;;;;;;;69.32;50.65;;;14.10;73.60;;;;;;4984901;28;90977;-47
2022/11/28 05:15:39;;;;;;;68.47;50.83;;;14.10;73.70;;;;;;4984583;28;94618;-50
2022/11/28 05:18:05;;;;;;;68.97;50.72;;;14.10;73.70;;;;;;4984003;28;91349;-47
2022/11/28 05:20:31;;;;;;;68.97;50.63;;;14.10;73.60;;;;;;4980640;28;91954;-48
2022/11/28 05:22:57;;;;;;;68.60;50.88;;;14.10;73.70;;;;;;4982608;28;91091;-50
2022/11/28 05:25:22;;;;;;;68.53;50.97;;;14.10;73.60;;;;;;4985626;27;90064;-48
2022/11/28 05:27:48;;;;;;;68.28;50.75;;;14.10;73.70;;;;;;4984693;28;93908;-52
2022/11/28 05:30:14;;;;;;;68.78;50.58;;;14.10;73.60;;;;;;4987445;27;89882;-48
2022/11/28 05:32:39;;;;;;;69.97;51.17;;;14.10;73.60;;;;;;4990868;28;91620;-51
2022/11/28 05:35:06;;;;;;;68.30;50.70;;;14.10;73.60;;;;;;4990368;28;89241;-49
2022/11/28 05:37:32;;;;;;;68.85;50.83;;;14.10;73.50;;;;;;4983199;28;90040;-50
2022/11/28 05:39:58;;;;;;;68.18;50.78;;;14.10;73.70;;;;;;4990372;28;90898;-50
2022/11/28 05:42:24;;;;;;;68.60;50.38;;;14.00;73.70;;;;;;4981537;28;90831;-49
2022/11/28 05:44:50;;;;;;;68.25;50.33;;;14.10;73.80;;;;;;4986127;28;90030;-53
2022/11/28 05:47:16;;;;;;;68.50;50.63;;;14.10;73.70;;;;;;4977736;28;92754;-51
2022/11/28 05:49:42;;;;;;;68.45;50.63;;;14.10;73.70;;;;;;4976313;27;90192;-50
2022/11/28 05:52:08;;;;;;;69.95;51.22;;;14.10;73.70;;;;;;4985407;28;90817;-48
2022/11/28 05:54:33;;;;;;;69.00;50.70;;;14.10;73.70;;;;;;4984213;28;90041;-50
2022/11/28 05:56:59;;;;;;;68.20;50.70;;;14.10;73.80;;;;;;4982526;28;89706;-50
2022/11/28 05:59:25;;;;;;;70.15;50.78;;;14.10;73.80;;;;;;4980475;28;89934;-49
2022/11/28 06:01:50;;;;;;;69.93;50.03;;;14.10;73.80;;;;;;4991886;28;89824;-48
2022/11/28 06:04:16;;;;;;;68.65;50.33;;;14.10;73.80;;;;;;4989494;28;91828;-47
2022/11/28 06:06:42;;;;;;;68.82;50.90;;;14.10;73.90;;;;;;4991110;28;91617;-49
2022/11/28 06:09:08;;;;;;;69.18;50.63;;;14.00;73.90;;;;;;4982286;28;91093;-51
2022/11/28 06:11:34;;;;;;;69.15;50.50;;;14.10;74.00;;;;;;4978500;28;93145;-48
2022/11/28 06:14:00;;;;;;;67.80;50.45;;;14.10;74.10;;;;;;4979258;28;92445;-52
2022/11/28 06:16:27;;;;;;;68.13;50.40;;;14.10;74.00;;;;;;4983299;27;90581;-49
2022/11/28 06:18:59;;;;;;;69.93;50.78;;;14.10;74.10;;;;;;4985900;28;92647;-48
2022/11/28 06:21:26;;;;;;;71.25;51.05;;;14.10;74.20;;;;;;4988089;28;89989;-47
2022/11/28 06:23:52;;;;;;;70.57;50.03;;;14.10;74.20;;;;;;4984346;28;89362;-49
2022/11/28 06:26:21;;;;;;;69.60;50.72;;;14.10;74.30;;;;;;4982678;27;90955;-49
2022/11/28 06:28:47;;;;;;;69.13;50.67;;;14.10;74.20;;;;;;4980772;28;91629;-48
2022/11/28 06:31:19;;;;;;;69.03;51.25;;;14.10;74.20;;;;;;4992158;28;90996;-49
2022/11/28 06:33:44;;;;;;;;;;;14.10;74.10;;;;;;4980247;28;90306;-48
2022/11/28 06:36:12;;;;;;;70.47;50.78;;;14.10;74.20;;;;;;4989698;28;89923;-51
2022/11/28 06:38:37;;;;;;;70.07;50.80;;;14.00;74.20;;;;;;4980868;28;89537;-50
2022/11/28 06:41:07;;;;;;;72.90;50.72;;;14.10;74.30;;;;;;4989164;28;90020;-50
2022/11/28 06:43:33;;;;;;;70.82;51.00;;;14.10;74.50;;;;;;4976616;28;93515;-50
2022/11/28 06:45:59;;;;;;;70.00;50.50;;;14.10;74.40;;;;;;4985636;27;89942;-48
2022/11/28 06:48:25;;;;;;;69.82;51.03;;;14.00;74.30;;;;;;4988397;28;90271;-48
2022/11/28 06:50:51;;;;;;;75.00;51.72;;;14.10;74.50;;;;;;4983987;28;92271;-50
2022/11/28 06:53:17;;;;;;;70.25;51.35;;;14.10;74.40;;;;;;4982858;28;90165;-46
2022/11/28 06:55:44;;;;;;;70.05;51.28;;;14.10;74.50;;;;;;4984673;28;92315;-48
2022/11/28 06:58:10;;;;;;;70.45;51.15;;;14.10;74.50;;;;;;4994183;28;91115;-49
2022/11/28 07:00:36;;;;;;;71.47;51.38;;;14.10;74.50;;;;;;4985576;28;90082;-50
2022/11/28 07:03:02;;;;;;;72.88;51.33;;;14.00;74.60;;;;;;4980019;28;90683;-49
2022/11/28 07:05:29;;;;;;;70.47;51.28;;;14.00;74.60;;;;;;4979744;28;90768;-53
2022/11/28 07:07:58;;;;;;;73.00;51.03;;;14.00;74.60;;;;;;4985128;28;93046;-51
2022/11/28 07:10:25;;;;;;;71.80;51.85;;;14.00;74.60;;;;;;4986677;28;90600;-51
2022/11/28 07:13:00;;;;;;;71.53;51.88;;;14.00;74.60;;;;;;4985086;28;90694;-52
2022/11/28 07:15:26;;;;;;;74.72;51.83;;;14.00;74.70;;;;;;4981115;28;90228;-50
2022/11/28 07:17:52;;;;;;;78.38;51.75;;;14.00;74.70;;;;;;4987034;28;90417;-50
2022/11/28 07:20:18;;;;;;;79.70;54.33;;;14.00;74.80;;;;;;4984645;28;91171;-52
2022/11/28 07:22:46;;;;;;;80.82;53.83;;;14.00;74.80;;;;;;4990983;28;89742;-48
2022/11/28 07:25:13;;;;;;;82.70;54.67;;;14.00;74.60;;;;;;4990865;28;91151;-52
2022/11/28 07:27:40;;;;;;;83.55;55.28;;;14.00;74.70;;;;;;4988880;28;89952;-51
2022/11/28 07:30:06;;;;;;;83.13;55.10;;;14.00;74.80;;;;;;4985261;28;92917;-51
2022/11/28 07:32:32;;;;;;;88.63;56.03;;;14.00;74.70;;;;;;4984801;28;89673;-48
2022/11/28 07:34:57;;;;;;;87.18;55.67;;;14.00;74.70;;;;;;4983506;28;91406;-49
2022/11/28 07:37:23;;;;;;;90.90;56.85;;;14.00;74.70;;;;;;4990689;28;89242;-51
2022/11/28 07:39:48;;;;;;;86.75;55.42;;;14.00;74.70;;;;;;4978926;27;91479;-52
2022/11/28 07:42:14;;;;;;;89.63;55.30;;;14.00;74.80;;;;;;4988143;28;90108;-48
2022/11/28 07:44:40;;;;;;;89.00;55.58;;;14.00;74.80;;;;;;4984596;27;90989;-48
2022/11/28 07:47:05;;;;;;;83.22;55.65;;;14.00;74.60;;;;;;4991541;28;91323;-47
2022/11/28 07:49:31;;;;;;;84.53;55.80;;;14.00;74.60;;;;;;4981935;28;91064;-48
2022/11/28 07:51:57;;;;;;;89.47;56.38;;;14.00;74.60;;;;;;4991295;28;89711;-47
2022/11/28 07:54:22;;;;;;;88.50;56.97;;;14.00;74.50;;;;;;4989400;27;90304;-47
2022/11/28 07:56:48;;;;;;;89.25;56.15;;;14.10;74.60;;;;;;4985648;28;90967;-48
2022/11/28 07:59:15;;;;;;;85.82;56.20;;;14.00;74.40;;;;;;4979668;28;89582;-46
2022/11/28 08:01:40;;;;;;;91.30;57.80;;;14.10;74.50;;;;;;4985404;27;94595;-52
2022/11/28 08:04:08;;;;;;;91.53;56.85;;;14.00;74.40;;;;;;4988219;28;90143;-49
2022/11/28 08:06:38;;;;;;;84.22;55.55;;;14.10;74.50;;;;;;4983614;28;89889;-54
2022/11/28 08:09:04;;;;;;;86.32;56.25;;;14.00;74.40;;;;;;4984746;27;92650;-47
2022/11/28 08:11:30;;;;;;;85.05;56.30;;;14.00;74.40;;;;;;4984953;28;89689;-51
2022/11/28 08:13:56;;;;;;;89.07;56.95;;;14.10;74.50;;;;;;4986405;28;90863;-47
2022/11/28 08:16:24;;;;;;;87.97;57.53;;;14.10;74.50;;;;;;4981490;28;89727;-46
2022/11/28 08:18:51;;;;;;;88.70;57.33;;;14.10;74.50;;;;;;4978991;28;93125;-48
2022/11/28 08:21:24;;;;;;;87.25;56.50;;;14.10;74.40;;;;;;4984065;28;89590;-48
2022/11/28 08:23:51;;;;;;;83.95;56.17;;;14.00;74.30;;;;;;4987256;28;90148;-47
2022/11/28 08:26:20;;;;;;;86.82;57.10;;;14.10;74.40;;;;;;4981384;27;90927;-47
2022/11/28 08:28:46;;;;;;;83.55;55.35;;;14.10;74.30;;;;;;4987958;28;89476;-47
2022/11/28 08:31:15;;;;;;;85.63;56.95;;;14.10;74.30;;;;;;4984647;28;89839;-52
2022/11/28 08:33:41;;;;;;;90.13;57.15;;;14.10;74.20;;;;;;4985830;28;93251;-51
2022/11/28 08:36:08;;;;;;;85.57;56.10;;;14.10;74.20;;;;;;4976704;28;91312;-47
2022/11/28 08:38:38;;;;;;;92.53;58.20;;;14.00;74.10;;;;;;4991560;28;89664;-48
2022/11/28 08:41:06;;;;;;;83.45;56.10;;;14.10;74.30;;;;;;4975087;28;89698;-48
2022/11/28 08:43:33;;;;;;;86.72;56.67;;;14.00;74.10;;;;;;4988582;28;90316;-48
2022/11/28 08:45:59;;;;;;;86.78;56.78;;;14.00;74.10;;;;;;4978810;28;90784;-48
2022/11/28 08:48:24;;;;;;;86.78;56.63;;;14.10;74.20;;;;;;4989869;27;89479;-48
2022/11/28 08:50:50;;;;;;;89.90;57.17;;;14.10;74.20;;;;;;4989105;28;89174;-50
2022/11/28 08:53:16;;;;;;;84.50;56.72;;;14.10;74.30;;;;;;4991904;28;91364;-51
2022/11/28 08:55:45;;;;;;;86.38;56.03;;;14.10;74.20;;;;;;4987438;27;92100;-49
2022/11/28 08:58:12;;;;;;;87.55;56.78;;;14.10;74.20;;;;;;4987414;28;90476;-49
2022/11/28 09:00:38;;;;;;;84.93;56.25;;;14.10;74.20;;;;;;4980579;28;90495;-48
2022/11/28 09:03:04;;;;;;;86.93;56.78;;;14.10;74.20;;;;;;4985370;28;90018;-48
2022/11/28 09:05:30;;;;;;;83.07;56.10;;;14.10;74.20;;;;;;4987389;28;91394;-49
2022/11/28 09:07:56;;;;;;;83.88;55.90;;;14.00;74.20;;;;;;4991220;28;90583;-47
2022/11/28 09:10:22;;;;;;;87.80;57.30;;;14.00;74.10;;;;;;4986163;28;90168;-49
2022/11/28 09:12:48;;;;;;;86.85;56.22;;;14.10;74.20;;;;;;4983991;28;90625;-47
2022/11/28 09:15:13;;;;;;;83.47;56.15;;;14.10;74.20;;;;;;4990345;27;90280;-47
2022/11/28 09:17:39;;;;;;;81.13;55.60;;;14.10;74.10;;;;;;4985157;28;90726;-49
2022/11/28 09:20:06;;;;;;;83.78;55.70;;;14.10;74.10;;;;;;4984827;28;91042;-47
2022/11/28 09:22:32;;;;;;;81.60;55.40;;;14.10;74.10;;;;;;4979312;28;90769;-51
2022/11/28 09:24:58;;;;;;;84.88;56.28;;;14.00;74.10;;;;;;4989098;28;90999;-49
2022/11/28 09:27:23;;;;;;;82.10;55.55;;;14.10;74.20;;;;;;4982182;27;90657;-48
2022/11/28 09:29:49;;;;;;;85.22;56.70;;;14.10;74.20;;;;;;4986340;28;89993;-48
2022/11/28 09:32:14;;;;;;;80.57;55.58;;;14.00;74.00;;;;;;4984650;28;90398;-47
2022/11/28 09:34:40;;;;;;;81.22;55.50;;;14.10;74.00;;;;;;4993582;28;93894;-50
2022/11/28 09:37:06;;;;;;;83.82;56.17;;;14.10;74.10;;;;;;4985089;28;89632;-47
2022/11/28 09:39:31;;;;;;;82.65;55.90;;;14.10;74.00;;;;;;4988972;28;89830;-48
2022/11/28 09:42:02;;;;;;;81.03;56.28;;;14.10;74.10;;;;;;4981790;28;90604;-47
2022/11/28 09:44:46;;;;;;;82.95;55.42;;;14.00;74.00;;;;;;4985647;28;90142;-53
2022/11/28 09:47:25;;;;;;;81.60;55.30;;;14.00;74.00;;;;;;4994543;28;90910;-51
2022/11/28 09:50:09;;;;;;;81.93;55.30;;;14.00;74.00;;;;;;4988734;28;91147;-48
2022/11/28 09:52:48;;;;;;;80.57;56.10;;;14.10;74.00;;;;;;4984073;28;92636;-47
2022/11/28 09:56:01;;;;;;;81.47;56.08;;;14.10;74.10;;;;;;4984664;28;89842;-47
2022/11/28 09:58:27;;;;;;;83.07;56.55;;;14.10;74.20;;;;;;4985668;28;91708;-48
2022/11/28 10:01:18;;;;;;;81.80;56.08;;;14.10;74.00;;;;;;4988492;28;89904;-47
2022/11/28 10:04:03;;;;;;;83.70;55.53;;;14.10;74.00;;;;;;4986701;28;90606;-52
2022/11/28 10:06:56;;;;;;;80.00;55.15;;;14.10;74.00;;;;;;4985412;27;89423;-48
2022/11/28 10:09:50;;;;;;;79.72;55.50;;;14.10;73.90;;;;;;4987565;28;93165;-50
2022/11/28 10:12:49;;;;;;;80.90;56.15;;;14.10;73.90;;;;;;4983191;28;91950;-49
2022/11/28 10:15:41;;;;;;;79.32;54.63;;;14.10;73.80;;;;;;4991722;28;90746;-51
2022/11/28 10:18:19;;;;;;;80.05;56.13;;;14.10;73.70;;;;;;4983919;28;91243;-47
2022/11/28 10:20:47;;;;;;;81.32;55.33;;;14.10;73.60;;;;;;4987911;28;89905;-48
2022/11/28 10:23:23;;;;;;;80.75;55.22;;;14.10;73.70;;;;;;4980498;28;91660;-51
2022/11/28 10:26:14;;;;;;;79.55;54.67;;;14.10;73.70;;;;;;4986391;28;92547;-49
2022/11/28 10:28:46;;;;;;;80.72;54.90;;;14.10;73.60;;;;;;4979753;28;90094;-48
2022/11/28 10:31:31;;;;;;;78.60;55.03;;;14.20;74.30;;;;;;4984139;28;90086;-48
2022/11/28 10:34:22;;;;;;;81.72;55.22;;;14.20;73.40;;;;;;4983774;28;88808;-50
2022/11/28 10:37:04;;;;;;;78.40;54.77;;;14.20;73.30;;;;;;4985648;28;92386;-49
2022/11/28 10:39:29;;;;;;;80.47;55.50;;;14.20;73.20;;;;;;4980406;28;89882;-51
2022/11/28 10:42:17;;;;;;;77.82;54.97;;;14.30;73.10;;;;;;4989610;28;91209;-50
2022/11/28 10:45:19;;;;;;;79.82;54.90;;;14.30;73.10;;;;;;4997300;28;91473;-47
2022/11/28 10:48:11;;;;;;;83.32;54.70;;;14.30;73.10;;;;;;4981009;28;91121;-47
2022/11/28 10:50:44;;;;;;;79.45;53.85;;;14.30;73.00;;;;;;4976794;28;91342;-51
2022/11/28 10:53:18;;;;;;;80.30;55.15;;;14.30;73.00;;;;;;5000581;28;89801;-49
2022/11/28 10:56:05;;;;;;;78.95;54.08;;;14.30;73.00;;;;;;4988982;28;91514;-47
2022/11/28 10:58:43;;;;;;;82.53;54.67;;;14.30;72.90;;;;;;4988494;28;90656;-50
2022/11/28 11:01:09;;;;;;;81.50;54.22;;;14.30;72.90;;;;;;4990044;28;91052;-47
2022/11/28 11:03:36;;;;;;;79.88;55.03;;;14.30;72.80;;;;;;4982340;28;89945;-49
2022/11/28 11:06:03;;;;;;;80.68;54.38;;;14.40;72.90;;;;;;4986605;28;89911;-47
2022/11/28 11:08:34;;;;;;;80.70;53.55;;;14.30;72.80;;;;;;4983189;28;94757;-52
2022/11/28 11:11:06;;;;;;;78.55;54.67;;;14.40;72.80;;;;;;4992943;28;90181;-49
2022/11/28 11:13:34;;;;;;;77.10;54.25;;;14.40;72.80;;;;;;4984927;27;90203;-48
2022/11/28 11:16:10;;;;;;;77.53;53.95;;;14.40;72.80;;;;;;4989236;28;90350;-48
2022/11/28 11:18:45;;;;;;;80.45;54.28;;;14.40;72.80;;;;;;4984785;28;90470;-47
2022/11/28 11:21:25;;;;;;;77.35;54.60;;;14.40;72.70;;;;;;4988655;28;89909;-48
2022/11/28 11:24:14;;;;;;;78.80;54.28;;;14.40;72.80;;;;;;4988658;28;91866;-48
2022/11/28 11:26:44;;;;;;;78.25;54.55;;;14.40;72.80;;;;;;4986679;28;88928;-51
2022/11/28 11:29:27;;;;;;;78.13;54.63;;;14.40;72.70;;;;;;4986632;28;90064;-50
2022/11/28 11:31:53;;;;;;;75.15;53.72;;;14.40;72.70;;;;;;4987817;28;89684;-48
2022/11/28 11:34:23;;;;;;;77.70;54.13;;;14.40;72.70;;;;;;4977829;28;91176;-50
2022/11/28 11:36:50;;;;;;;76.75;53.95;;;14.40;72.70;;;;;;4988493;28;92549;-52
2022/11/28 11:39:20;;;;;;;76.57;53.97;;;14.40;72.70;;;;;;4990017;28;89863;-50
2022/11/28 11:42:09;;;;;;;77.90;54.25;;;14.40;72.60;;;;;;4986065;28;92642;-48
2022/11/28 11:44:35;;;;;;;78.05;53.58;;;14.40;72.60;;;;;;4985425;28;95141;-51
2022/11/28 11:47:04;;;;;;;78.68;54.03;;;14.40;72.50;;;;;;4988937;28;90138;-50
2022/11/28 11:49:32;;;;;;;78.95;54.00;;;14.40;72.50;;;;;;4979807;28;93073;-51
2022/11/28 11:52:01;;;;;;;76.88;53.53;;;14.50;72.60;;;;;;4980938;28;90464;-52
2022/11/28 11:54:27;;;;;;;76.68;53.65;;;14.50;72.60;;;;;;4977441;28;89995;-47
2022/11/28 11:56:55;;;;;;;80.85;54.20;;;14.50;72.60;;;;;;4979457;28;91944;-51
2022/11/28 11:59:44;;;;;;;78.32;53.85;;;14.50;72.50;;;;;;4984627;28;92317;-52
2022/11/28 12:02:45;;;;;;;76.82;53.92;;;14.50;72.50;;;;;;4988069;28;92026;-52
2022/11/28 12:05:17;;;;;;;76.20;53.38;;;14.50;72.50;;;;;;4984953;28;94482;-47
2022/11/28 12:08:24;;;;;;;77.60;54.05;;;14.50;72.40;;;;;;4995691;28;89852;-50
2022/11/28 12:11:01;;;;;;;77.65;54.13;;;14.50;72.50;;;;;;4982466;28;90826;-48
2022/11/28 12:13:27;;;;;;;74.93;53.22;;;14.50;72.30;;;;;;4984320;28;91407;-50
2022/11/28 12:16:40;;;;;;;75.72;53.17;;;14.50;72.40;;;;;;4988987;28;90224;-50
2022/11/28 12:19:11;;;;;;;76.22;53.70;;;14.50;72.40;;;;;;4999809;27;91132;-47
2022/11/28 12:22:02;;;;;;;76.65;53.05;;;14.50;72.40;;;;;;4989791;28;89720;-50
2022/11/28 12:24:40;;;;;;;76.57;53.33;;;14.50;72.40;;;;;;4985539;28;90037;-50
2022/11/28 12:27:17;;;;;;;75.85;53.22;;;14.50;72.30;;;;;;4987648;28;90834;-51
2022/11/28 12:29:54;;;;;;;74.20;52.83;;;14.50;72.30;;;;;;4981387;28;90162;-47
2022/11/28 12:32:43;;;;;;;78.20;54.28;;;14.60;72.40;;;;;;4987373;28;90223;-48
2022/11/28 12:35:32;;;;;;;76.53;53.67;;;14.60;72.30;;;;;;4989734;28;91536;-47
2022/11/28 12:38:06;;;;;;;76.43;53.13;;;14.60;72.30;;;;;;4997934;27;90021;-52
2022/11/28 12:40:55;;;;;;;76.82;53.22;;;14.50;72.20;;;;;;4982525;28;89819;-48
2022/11/28 12:43:31;;;;;;;75.20;53.15;;;14.60;72.20;;;;;;4987782;28;90641;-48
2022/11/28 12:45:56;;;;;;;75.28;52.95;;;14.60;72.30;;;;;;4986557;28;90514;-50
2022/11/28 12:48:52;;;;;;;75.85;53.22;;;14.60;72.30;;;;;;4992440;28;93156;-51
2022/11/28 12:51:27;;;;;;;74.75;52.58;;;14.60;72.30;;;;;;4986339;28;90348;-50
2022/11/28 12:54:22;;;;;;;79.35;53.22;;;14.60;72.40;;;;;;4985527;28;91257;-47